Stations météo

réclame
Mon MeteoGroup
Great Dun Fell, Grande-Bretagne (3227): Température de l'air & dewpoint: 20.01.2021 03:00:00 - 26.01.2021 03:00:00 (GMT)Great Dun Fell, Grande-Bretagne (3227): Vitesse du vent & gusts: 20.01.2021 03:00:00 - 26.01.2021 03:00:00 (GMT)Great Dun Fell, Grande-Bretagne (3227): Direction du vent: 20.01.2021 03:00:00 - 26.01.2021 03:00:00 (GMT)
Date & Time tt [°C] td [°C] ff [km/h] ff [knt] fx [km/h] fx [knt] dd
26.01.2021 03:00:00 - - - - - - -
26.01.2021 02:00:00 -2,7 -2,7 26 14 - - W
26.01.2021 01:00:00 -2,4 -2,4 35 19 - - WNW
26.01.2021 00:00:00 -2,3 -2,3 31 17 - - WNW
25.01.2021 23:00:00 -2,2 -2,2 35 19 - - WNW
25.01.2021 22:00:00 -2,5 -2,5 26 14 - - WNW
25.01.2021 21:00:00 -2,6 -2,6 39 21 55 30 WNW
25.01.2021 20:00:00 -2,5 -2,5 39 21 48 26 WNW
25.01.2021 19:00:00 -2,3 -2,3 39 21 54 29 WNW
25.01.2021 18:00:00 -2,1 -2,1 42 23 63 34 WNW
25.01.2021 17:00:00 -2,0 -2,0 52 28 67 36 WNW
25.01.2021 16:00:00 -1,8 -1,8 52 28 70 38 WNW
25.01.2021 15:00:00 -1,7 -1,7 52 28 83 45 WNW
25.01.2021 14:00:00 -1,7 -1,7 59 32 74 40 WNW
25.01.2021 13:00:00 -1,9 -1,9 55 30 76 41 WNW
25.01.2021 12:00:00 -2,1 -2,1 54 29 68 37 WNW
25.01.2021 11:00:00 -2,5 -2,5 57 31 70 38 WNW
25.01.2021 10:00:00 -2,9 -2,9 52 28 76 41 WNW
25.01.2021 09:00:00 -2,9 -2,9 63 34 83 45 WNW
25.01.2021 08:00:00 -3,0 -3,0 57 31 70 38 WNW
25.01.2021 07:00:00 -3,0 -3,0 48 26 70 38 WNW
25.01.2021 06:00:00 -3,2 -3,2 48 26 67 36 W
25.01.2021 05:00:00 -3,5 -3,5 - - - - -
25.01.2021 04:00:00 -4,1 -4,1 - - - - -
25.01.2021 03:00:00 -3,9 -3,9 - - - - -
25.01.2021 02:00:00 -3,9 -3,9 - - - - -
25.01.2021 01:00:00 -4,1 -4,1 - - - - -
25.01.2021 00:00:00 -4,4 -4,4 - - - - -
24.01.2021 23:00:00 -4,5 -4,5 - - - - -
24.01.2021 22:00:00 -4,3 -4,3 - - - - -
24.01.2021 21:00:00 -4,8 -4,8 - - - - -
24.01.2021 20:00:00 -4,9 -4,9 - - - - -
24.01.2021 19:00:00 -5,1 -5,1 - - - - -
24.01.2021 18:00:00 -5,4 -5,5 - - - - -
24.01.2021 17:00:00 -5,2 -5,2 - - - - -
24.01.2021 16:00:00 -4,8 -4,8 - - - - -
24.01.2021 15:00:00 -5,0 -5,0 - - - - -
24.01.2021 14:00:00 -4,3 -4,3 - - - - -
24.01.2021 13:00:00 -4,7 -4,7 - - - - -
24.01.2021 12:00:00 -5,0 -5,0 - - - - -
24.01.2021 11:00:00 -5,2 -5,2 - - - - -
24.01.2021 10:00:00 -5,4 -5,4 - - - - -
24.01.2021 09:00:00 -5,7 -5,7 - - - - -
24.01.2021 08:00:00 -5,8 -5,9 - - - - -
24.01.2021 07:00:00 -5,1 -5,1 - - - - -
24.01.2021 06:00:00 -5,0 -5,0 - - - - -
24.01.2021 05:00:00 -4,7 -4,7 - - - - -
24.01.2021 04:00:00 -4,5 -4,5 - - - - -
24.01.2021 03:00:00 -4,4 -4,4 - - - - -
24.01.2021 02:00:00 -4,5 -4,5 - - - - -
24.01.2021 01:00:00 -4,6 -4,6 - - - - -
24.01.2021 00:00:00 -5,0 -5,0 - - - - -
23.01.2021 23:00:00 -5,2 -5,2 - - - - -
23.01.2021 22:00:00 -5,1 -5,1 - - - - -
23.01.2021 21:00:00 -5,0 -5,0 - - - - -
23.01.2021 20:00:00 -4,6 -4,6 - - - - -
23.01.2021 19:00:00 -4,6 -4,6 - - - - -
23.01.2021 18:00:00 -4,9 -4,9 - - - - -
23.01.2021 17:00:00 -4,9 -4,9 - - - - -
23.01.2021 16:00:00 -4,5 -4,5 - - - - -
23.01.2021 15:00:00 -4,2 -4,2 - - - - -
23.01.2021 14:00:00 -4,3 -4,3 - - - - -
23.01.2021 13:00:00 -4,4 -4,4 - - - - -
23.01.2021 12:00:00 -4,5 -4,5 - - - - -
23.01.2021 11:00:00 -4,9 -4,9 - - - - -
23.01.2021 10:00:00 -4,8 -4,8 - - - - -
23.01.2021 09:00:00 -4,9 -4,9 - - - - -
23.01.2021 08:00:00 -4,5 -4,5 - - - - -
23.01.2021 07:00:00 -4,5 -4,5 - - - - -
23.01.2021 06:00:00 -4,4 -4,4 - - - - -
23.01.2021 05:00:00 -4,0 -4,0 - - - - -
23.01.2021 04:00:00 -4,3 -4,3 - - - - -
23.01.2021 03:00:00 -3,8 -3,8 - - - - -
23.01.2021 02:00:00 -3,6 -3,6 - - - - -
23.01.2021 01:00:00 -3,3 -3,3 - - - - -
23.01.2021 00:00:00 -3,4 -3,4 - - - - -
22.01.2021 23:00:00 -3,3 -3,3 - - - - -
22.01.2021 22:00:00 -3,0 -3,0 - - - - -
22.01.2021 21:00:00 -3,0 -3,0 - - - - -
22.01.2021 20:00:00 -2,9 -2,9 - - - - -
22.01.2021 19:00:00 -2,8 -2,8 - - - - -
22.01.2021 18:00:00 -2,6 -2,6 - - - - -
22.01.2021 17:00:00 -2,6 -2,6 - - - - -
22.01.2021 16:00:00 -2,5 -2,5 - - - - -
22.01.2021 15:00:00 -2,6 -2,6 - - - - -
22.01.2021 14:00:00 -2,3 -2,3 - - - - -
22.01.2021 13:00:00 -2,2 -2,2 - - - - -
22.01.2021 12:00:00 -2,3 -2,3 - - - - -
22.01.2021 11:00:00 -2,5 -2,5 - - - - -
22.01.2021 10:00:00 -2,8 -2,8 - - - - -
22.01.2021 09:00:00 -2,9 -2,9 - - - - -
22.01.2021 08:00:00 -2,9 -2,9 - - - - -
22.01.2021 07:00:00 -2,9 -2,9 - - - - -
22.01.2021 06:00:00 -3,1 -3,1 - - - - -
22.01.2021 05:00:00 -2,9 -2,9 - - - - -
22.01.2021 04:00:00 -3,0 -3,0 - - - - -
22.01.2021 03:00:00 -2,9 -2,9 - - - - -
22.01.2021 02:00:00 -2,8 -2,8 - - - - -
22.01.2021 01:00:00 -2,9 -2,9 - - - - -
22.01.2021 00:00:00 -2,8 -2,8 - - - - -
21.01.2021 23:00:00 -2,8 -2,8 - - - - -
21.01.2021 22:00:00 -2,6 -2,6 - - - - -
21.01.2021 21:00:00 -2,4 -2,4 - - - - -
21.01.2021 20:00:00 -2,2 -2,2 - - - - -
21.01.2021 19:00:00 -2,1 -2,1 - - - - -
21.01.2021 18:00:00 -2,1 -2,1 - - - - -
21.01.2021 17:00:00 -2,0 -2,0 - - - - -
21.01.2021 16:00:00 -1,8 -1,8 - - - - -
21.01.2021 15:00:00 -1,5 -1,5 - - - - -
21.01.2021 14:00:00 -1,5 -1,5 - - - - -
21.01.2021 13:00:00 -1,6 -1,6 - - 65 35 -
21.01.2021 12:00:00 -2,1 -2,1 - - 61 33 -
21.01.2021 11:00:00 -2,6 -2,6 39 21 59 32 W
21.01.2021 10:00:00 -2,6 -2,6 48 26 59 32 W
21.01.2021 09:00:00 -2,8 -2,8 48 26 76 41 W
21.01.2021 08:00:00 -3,0 -3,0 61 33 76 41 W
21.01.2021 07:00:00 -2,8 -2,8 61 33 74 40 W
21.01.2021 06:00:00 -3,0 -3,0 55 30 72 39 W
21.01.2021 05:00:00 -3,2 -3,2 61 33 78 42 W
21.01.2021 04:00:00 -3,6 -3,6 61 33 83 45 W
21.01.2021 03:00:00 -3,5 -3,5 59 32 81 44 W
21.01.2021 02:00:00 -3,5 -3,5 50 27 61 33 WNW
21.01.2021 01:00:00 -3,6 -3,6 44 24 54 29 WNW
21.01.2021 00:00:00 -3,5 -3,5 41 22 54 29 NW
20.01.2021 23:00:00 -3,0 -3,0 42 23 52 28 WNW
20.01.2021 22:00:00 -2,9 -2,9 34 18 - - NW
20.01.2021 21:00:00 -2,3 -2,3 21 11 - - N
20.01.2021 20:00:00 -2,0 -2,0 21 11 - - N
20.01.2021 19:00:00 -1,4 -2,4 11 6 - - N
20.01.2021 18:00:00 -1,2 -1,2 13 7 - - NNE
20.01.2021 17:00:00 -1,3 -1,3 15 8 - - N
20.01.2021 16:00:00 -0,8 -0,8 9 5 - - W
20.01.2021 15:00:00 0,0 0,0 8 4 - - WNW
20.01.2021 14:00:00 0,1 0,1 21 11 - - W
20.01.2021 13:00:00 1,5 1,5 16 9 - - WSW
20.01.2021 12:00:00 2,7 2,7 22 12 - - SW
20.01.2021 11:00:00 2,6 2,6 22 12 - - SW
20.01.2021 10:00:00 3,1 3,1 31 17 - - SW
20.01.2021 09:00:00 3,3 3,3 34 18 46 25 SW
20.01.2021 08:00:00 3,8 3,8 41 22 54 29 SW
20.01.2021 07:00:00 4,3 4,2 48 26 70 38 WSW
20.01.2021 06:00:00 4,5 4,4 63 34 76 41 SW
20.01.2021 05:00:00 4,5 - 63 34 74 40 SW
20.01.2021 04:00:00 4,4 4,4 63 34 74 40 SW
20.01.2021 03:00:00 4,6 4,6 68 37 78 42 SW

tt = Température de l'air
td = dewpoint
ff = Vitesse du vent
fx = gusts
dd = Direction du vent

stations d'obs. à proximité